sensor_id;sensor_type;location;lat;lon;timestamp;temperature;humidity
17529;DHT22;8882;53.192;8.184;2022-12-29T05:30:33;10.00;99.90
17529;DHT22;8882;53.192;8.184;2022-12-29T05:32:58;10.00;99.90
17529;DHT22;8882;53.192;8.184;2022-12-29T05:35:24;10.00;99.90
17529;DHT22;8882;53.192;8.184;2022-12-29T05:37:49;10.00;99.90
17529;DHT22;8882;53.192;8.184;2022-12-29T05:40:15;10.00;99.90
17529;DHT22;8882;53.192;8.184;2022-12-29T05:42:40;10.00;99.90
17529;DHT22;8882;53.192;8.184;2022-12-29T05:45:07;10.00;99.90
17529;DHT22;8882;53.192;8.184;2022-12-29T05:47:33;10.10;99.90
17529;DHT22;8882;53.192;8.184;2022-12-29T05:49:58;10.10;99.90
17529;DHT22;8882;53.192;8.184;2022-12-29T05:52:24;10.10;99.90
17529;DHT22;8882;53.192;8.184;2022-12-29T05:54:49;10.10;99.90
17529;DHT22;8882;53.192;8.184;2022-12-29T05:57:15;10.10;99.90
17529;DHT22;8882;53.192;8.184;2022-12-29T05:59:40;10.20;99.90
17529;DHT22;8882;53.192;8.184;2022-12-29T06:02:06;10.10;99.90
17529;DHT22;8882;53.192;8.184;2022-12-29T06:04:31;10.10;99.90
17529;DHT22;8882;53.192;8.184;2022-12-29T06:06:57;10.00;99.90
17529;DHT22;8882;53.192;8.184;2022-12-29T06:09:22;9.90;99.90
17529;DHT22;8882;53.192;8.184;2022-12-29T06:11:48;9.80;99.90
17529;DHT22;8882;53.192;8.184;2022-12-29T06:14:13;9.80;99.90
17529;DHT22;8882;53.192;8.184;2022-12-29T06:16:39;9.70;99.90
17529;DHT22;8882;53.192;8.184;2022-12-29T06:19:04;9.70;99.90
17529;DHT22;8882;53.192;8.184;2022-12-29T06:21:30;9.80;99.90
17529;DHT22;8882;53.192;8.184;2022-12-29T06:23:55;9.70;99.90
17529;DHT22;8882;53.192;8.184;2022-12-29T06:26:21;9.70;99.90
17529;DHT22;8882;53.192;8.184;2022-12-29T06:28:46;9.70;99.90
17529;DHT22;8882;53.192;8.184;2022-12-29T06:31:12;9.60;99.90
17529;DHT22;8882;53.192;8.184;2022-12-29T06:33:38;9.60;99.90
17529;DHT22;8882;53.192;8.184;2022-12-29T06:36:04;9.60;99.90
17529;DHT22;8882;53.192;8.184;2022-12-29T06:38:29;9.60;99.90
17529;DHT22;8882;53.192;8.184;2022-12-29T06:40:55;9.60;99.90
17529;DHT22;8882;53.192;8.184;2022-12-29T06:43:21;9.50;99.90
17529;DHT22;8882;53.192;8.184;2022-12-29T06:45:46;9.50;99.90
17529;DHT22;8882;53.192;8.184;2022-12-29T06:48:12;9.50;99.90
17529;DHT22;8882;53.192;8.184;2022-12-29T06:50:38;9.50;99.90
17529;DHT22;8882;53.192;8.184;2022-12-29T06:53:03;9.50;99.90
17529;DHT22;8882;53.192;8.184;2022-12-29T06:55:29;9.50;99.90
17529;DHT22;8882;53.192;8.184;2022-12-29T06:57:58;9.50;99.90
17529;DHT22;8882;53.192;8.184;2022-12-29T07:00:24;9.60;99.90
17529;DHT22;8882;53.192;8.184;2022-12-29T07:02:50;9.70;99.90
17529;DHT22;8882;53.192;8.184;2022-12-29T07:05:15;9.70;99.90
17529;DHT22;8882;53.192;8.184;2022-12-29T07:07:41;9.70;99.90
17529;DHT22;8882;53.192;8.184;2022-12-29T07:10:06;9.60;99.90
17529;DHT22;8882;53.192;8.184;2022-12-29T07:12:32;9.60;99.90
17529;DHT22;8882;53.192;8.184;2022-12-29T07:14:57;9.60;99.90
17529;DHT22;8882;53.192;8.184;2022-12-29T07:17:23;9.60;99.90
17529;DHT22;8882;53.192;8.184;2022-12-29T07:19:48;9.60;99.90
17529;DHT22;8882;53.192;8.184;2022-12-29T07:22:14;9.60;99.90
17529;DHT22;8882;53.192;8.184;2022-12-29T07:24:39;9.50;99.90
17529;DHT22;8882;53.192;8.184;2022-12-29T07:27:05;9.50;99.90
17529;DHT22;8882;53.192;8.184;2022-12-29T07:29:31;9.50;99.90
17529;DHT22;8882;53.192;8.184;2022-12-29T07:31:56;9.50;99.90
17529;DHT22;8882;53.192;8.184;2022-12-29T07:34:22;9.60;99.90
17529;DHT22;8882;53.192;8.184;2022-12-29T07:36:47;9.70;99.90
17529;DHT22;8882;53.192;8.184;2022-12-29T07:39:13;9.70;99.90
17529;DHT22;8882;53.192;8.184;2022-12-29T07:41:38;9.70;99.90
17529;DHT22;8882;53.192;8.184;2022-12-29T07:44:04;9.70;99.90
17529;DHT22;8882;53.192;8.184;2022-12-29T07:46:29;9.70;99.90
17529;DHT22;8882;53.192;8.184;2022-12-29T07:48:55;9.60;99.90
17529;DHT22;8882;53.192;8.184;2022-12-29T07:51:20;9.70;99.90
17529;DHT22;8882;53.192;8.184;2022-12-29T07:53:46;9.70;99.90
17529;DHT22;8882;53.192;8.184;2022-12-29T07:56:11;9.70;99.90
17529;DHT22;8882;53.192;8.184;2022-12-29T07:58:37;9.70;99.90
17529;DHT22;8882;53.192;8.184;2022-12-29T08:01:02;9.70;99.90
17529;DHT22;8882;53.192;8.184;2022-12-29T08:03:28;9.60;99.90
17529;DHT22;8882;53.192;8.184;2022-12-29T08:05:53;9.70;99.90
17529;DHT22;8882;53.192;8.184;2022-12-29T08:08:20;9.70;99.90
17529;DHT22;8882;53.192;8.184;2022-12-29T08:10:45;9.70;99.90
17529;DHT22;8882;53.192;8.184;2022-12-29T08:13:11;9.60;99.90
17529;DHT22;8882;53.192;8.184;2022-12-29T08:15:38;9.70;99.90
17529;DHT22;8882;53.192;8.184;2022-12-29T08:18:03;9.70;99.90
17529;DHT22;8882;53.192;8.184;2022-12-29T08:20:29;9.70;99.90
17529;DHT22;8882;53.192;8.184;2022-12-29T08:22:54;9.70;99.90
17529;DHT22;8882;53.192;8.184;2022-12-29T08:25:20;9.70;99.90
17529;DHT22;8882;53.192;8.184;2022-12-29T08:27:46;9.70;99.90
17529;DHT22;8882;53.192;8.184;2022-12-29T08:30:12;9.80;99.90
17529;DHT22;8882;53.192;8.184;2022-12-29T08:32:37;9.80;99.90
17529;DHT22;8882;53.192;8.184;2022-12-29T08:35:03;9.80;99.90
17529;DHT22;8882;53.192;8.184;2022-12-29T08:37:29;9.80;99.90
17529;DHT22;8882;53.192;8.184;2022-12-29T08:39:54;9.70;99.90
17529;DHT22;8882;53.192;8.184;2022-12-29T08:42:20;9.70;99.90
17529;DHT22;8882;53.192;8.184;2022-12-29T08:44:45;9.70;99.90
17529;DHT22;8882;53.192;8.184;2022-12-29T08:47:11;9.70;99.90
17529;DHT22;8882;53.192;8.184;2022-12-29T08:49:37;9.70;99.90
17529;DHT22;8882;53.192;8.184;2022-12-29T08:52:03;9.70;99.90
17529;DHT22;8882;53.192;8.184;2022-12-29T08:54:29;9.70;99.90
17529;DHT22;8882;53.192;8.184;2022-12-29T08:56:54;9.70;99.90
17529;DHT22;8882;53.192;8.184;2022-12-29T08:59:20;9.80;99.90
17529;DHT22;8882;53.192;8.184;2022-12-29T09:01:45;9.70;99.90
17529;DHT22;8882;53.192;8.184;2022-12-29T09:04:11;9.80;99.90
17529;DHT22;8882;53.192;8.184;2022-12-29T09:06:37;9.80;99.90
17529;DHT22;8882;53.192;8.184;2022-12-29T09:09:02;9.80;99.90
17529;DHT22;8882;53.192;8.184;2022-12-29T09:11:28;9.80;99.90
17529;DHT22;8882;53.192;8.184;2022-12-29T09:13:54;9.70;99.90
17529;DHT22;8882;53.192;8.184;2022-12-29T09:16:21;9.80;99.90
17529;DHT22;8882;53.192;8.184;2022-12-29T09:18:47;9.80;99.90
17529;DHT22;8882;53.192;8.184;2022-12-29T09:21:13;9.80;99.90
17529;DHT22;8882;53.192;8.184;2022-12-29T09:23:39;9.80;99.90
17529;DHT22;8882;53.192;8.184;2022-12-29T09:26:06;9.80;99.90
17529;DHT22;8882;53.192;8.184;2022-12-29T09:28:32;9.80;99.90
17529;DHT22;8882;53.192;8.184;2022-12-29T09:30:59;9.70;99.90
17529;DHT22;8882;53.192;8.184;2022-12-29T09:33:25;9.70;99.90
17529;DHT22;8882;53.192;8.184;2022-12-29T09:35:56;9.90;99.90
17529;DHT22;8882;53.192;8.184;2022-12-29T09:38:22;9.90;99.90
17529;DHT22;8882;53.192;8.184;2022-12-29T09:40:58;9.90;99.90
17529;DHT22;8882;53.192;8.184;2022-12-29T09:43:59;9.90;99.90
17529;DHT22;8882;53.192;8.184;2022-12-29T09:46:41;9.90;99.90
17529;DHT22;8882;53.192;8.184;2022-12-29T09:49:37;9.90;99.90
17529;DHT22;8882;53.192;8.184;2022-12-29T09:52:34;9.90;99.90
17529;DHT22;8882;53.192;8.184;2022-12-29T09:55:00;9.90;99.90
17529;DHT22;8882;53.192;8.184;2022-12-29T10:00:16;10.00;99.90
17529;DHT22;8882;53.192;8.184;2022-12-29T10:02:46;10.00;99.90
17529;DHT22;8882;53.192;8.184;2022-12-29T10:05:41;10.00;99.90
17529;DHT22;8882;53.192;8.184;2022-12-29T10:10:59;10.10;99.90
17529;DHT22;8882;53.192;8.184;2022-12-29T10:16:17;10.20;99.90
17529;DHT22;8882;53.192;8.184;2022-12-29T10:21:40;10.10;99.90
17529;DHT22;8882;53.192;8.184;2022-12-29T10:24:12;10.10;99.90
17529;DHT22;8882;53.192;8.184;2022-12-29T10:26:44;10.10;99.90
17529;DHT22;8882;53.192;8.184;2022-12-29T10:29:24;10.10;99.90
17529;DHT22;8882;53.192;8.184;2022-12-29T10:32:00;10.10;99.90
17529;DHT22;8882;53.192;8.184;2022-12-29T10:34:29;10.00;99.90
17529;DHT22;8882;53.192;8.184;2022-12-29T10:37:05;10.00;99.90
17529;DHT22;8882;53.192;8.184;2022-12-29T10:39:48;10.00;99.90
17529;DHT22;8882;53.192;8.184;2022-12-29T10:42:37;10.00;99.90
17529;DHT22;8882;53.192;8.184;2022-12-29T10:45:10;10.00;99.90
17529;DHT22;8882;53.192;8.184;2022-12-29T10:50:25;10.00;99.90
17529;DHT22;8882;53.192;8.184;2022-12-29T10:52:52;10.00;99.90
17529;DHT22;8882;53.192;8.184;2022-12-29T10:55:22;9.90;99.90
17529;DHT22;8882;53.192;8.184;2022-12-29T10:57:50;9.90;99.90
17529;DHT22;8882;53.192;8.184;2022-12-29T11:00:18;9.80;99.90
17529;DHT22;8882;53.192;8.184;2022-12-29T11:08:26;9.70;99.90
17529;DHT22;8882;53.192;8.184;2022-12-29T11:11:01;9.70;99.90
17529;DHT22;8882;53.192;8.184;2022-12-29T11:13:30;9.70;99.90
17529;DHT22;8882;53.192;8.184;2022-12-29T11:15:56;9.70;99.90
17529;DHT22;8882;53.192;8.184;2022-12-29T11:18:24;9.70;99.90
17529;DHT22;8882;53.192;8.184;2022-12-29T11:20:58;9.70;99.90
17529;DHT22;8882;53.192;8.184;2022-12-29T11:23:38;9.70;99.90
17529;DHT22;8882;53.192;8.184;2022-12-29T11:28:37;9.80;99.90
17529;DHT22;8882;53.192;8.184;2022-12-29T11:31:05;9.80;99.90
17529;DHT22;8882;53.192;8.184;2022-12-29T11:33:32;9.90;99.90
17529;DHT22;8882;53.192;8.184;2022-12-29T11:38:48;9.90;99.90
17529;DHT22;8882;53.192;8.184;2022-12-29T11:41:23;10.00;99.90
17529;DHT22;8882;53.192;8.184;2022-12-29T11:43:50;9.90;99.90
17529;DHT22;8882;53.192;8.184;2022-12-29T11:46:32;10.00;99.90
17529;DHT22;8882;53.192;8.184;2022-12-29T11:48:59;10.00;99.90
17529;DHT22;8882;53.192;8.184;2022-12-29T11:51:46;10.00;99.90
17529;DHT22;8882;53.192;8.184;2022-12-29T11:54:24;10.00;99.90
17529;DHT22;8882;53.192;8.184;2022-12-29T11:56:51;10.00;99.90
17529;DHT22;8882;53.192;8.184;2022-12-29T12:02:30;9.80;99.90
17529;DHT22;8882;53.192;8.184;2022-12-29T12:05:14;9.70;99.90
17529;DHT22;8882;53.192;8.184;2022-12-29T12:07:44;9.60;99.90
17529;DHT22;8882;53.192;8.184;2022-12-29T12:10:21;9.50;99.90
17529;DHT22;8882;53.192;8.184;2022-12-29T12:13:15;9.50;99.90
17529;DHT22;8882;53.192;8.184;2022-12-29T12:15:42;9.50;99.90
17529;DHT22;8882;53.192;8.184;2022-12-29T12:18:10;9.50;99.90
17529;DHT22;8882;53.192;8.184;2022-12-29T12:20:56;9.50;99.90
17529;DHT22;8882;53.192;8.184;2022-12-29T12:23:41;9.60;99.90
17529;DHT22;8882;53.192;8.184;2022-12-29T12:26:18;9.60;99.90
17529;DHT22;8882;53.192;8.184;2022-12-29T12:29:04;9.70;99.90
17529;DHT22;8882;53.192;8.184;2022-12-29T12:31:59;9.70;99.90
17529;DHT22;8882;53.192;8.184;2022-12-29T12:34:38;9.70;99.90
17529;DHT22;8882;53.192;8.184;2022-12-29T12:40:25;9.80;99.90
17529;DHT22;8882;53.192;8.184;2022-12-29T12:43:21;9.70;99.90
17529;DHT22;8882;53.192;8.184;2022-12-29T12:49:06;9.60;99.90
17529;DHT22;8882;53.192;8.184;2022-12-29T13:00:19;9.70;99.90
17529;DHT22;8882;53.192;8.184;2022-12-29T13:29:42;9.10;99.90
17529;DHT22;8882;53.192;8.184;2022-12-29T13:32:21;9.40;99.90
17529;DHT22;8882;53.192;8.184;2022-12-29T13:37:52;9.40;99.90
17529;DHT22;8882;53.192;8.184;2022-12-29T13:40:25;9.30;99.90
17529;DHT22;8882;53.192;8.184;2022-12-29T13:42:53;9.30;99.90
17529;DHT22;8882;53.192;8.184;2022-12-29T13:45:23;9.30;99.90
17529;DHT22;8882;53.192;8.184;2022-12-29T13:50:22;9.30;99.90
17529;DHT22;8882;53.192;8.184;2022-12-29T13:55:37;9.30;99.90
17529;DHT22;8882;53.192;8.184;2022-12-29T14:03:47;9.30;99.90
17529;DHT22;8882;53.192;8.184;2022-12-29T14:08:57;9.20;99.90
17529;DHT22;8882;53.192;8.184;2022-12-29T14:11:36;9.20;99.90
17529;DHT22;8882;53.192;8.184;2022-12-29T14:14:18;9.10;99.90
17529;DHT22;8882;53.192;8.184;2022-12-29T14:16:44;9.10;99.90
17529;DHT22;8882;53.192;8.184;2022-12-29T14:19:18;9.10;99.90
17529;DHT22;8882;53.192;8.184;2022-12-29T14:21:57;8.90;99.90
17529;DHT22;8882;53.192;8.184;2022-12-29T14:37:35;8.90;99.90
17529;DHT22;8882;53.192;8.184;2022-12-29T14:40:22;8.90;99.90
17529;DHT22;8882;53.192;8.184;2022-12-29T14:42:50;8.90;99.90
17529;DHT22;8882;53.192;8.184;2022-12-29T14:47:49;9.00;99.90
17529;DHT22;8882;53.192;8.184;2022-12-29T14:50:43;9.00;99.90
17529;DHT22;8882;53.192;8.184;2022-12-29T14:56:09;9.00;99.90
17529;DHT22;8882;53.192;8.184;2022-12-29T15:04:00;8.90;99.90
17529;DHT22;8882;53.192;8.184;2022-12-29T15:06:29;8.90;99.90
17529;DHT22;8882;53.192;8.184;2022-12-29T15:14:00;8.80;99.90
17529;DHT22;8882;53.192;8.184;2022-12-29T15:16:31;8.80;99.90
17529;DHT22;8882;53.192;8.184;2022-12-29T15:18:58;9.00;99.90
17529;DHT22;8882;53.192;8.184;2022-12-29T15:21:32;8.90;99.90
17529;DHT22;8882;53.192;8.184;2022-12-29T15:23:58;8.90;99.90
17529;DHT22;8882;53.192;8.184;2022-12-29T15:26:41;8.80;99.90
17529;DHT22;8882;53.192;8.184;2022-12-29T15:32:10;8.60;99.90
17529;DHT22;8882;53.192;8.184;2022-12-29T15:34:40;8.60;99.90
17529;DHT22;8882;53.192;8.184;2022-12-29T15:37:07;8.50;99.90
17529;DHT22;8882;53.192;8.184;2022-12-29T15:39:33;8.40;99.90
17529;DHT22;8882;53.192;8.184;2022-12-29T15:42:20;8.40;99.90
17529;DHT22;8882;53.192;8.184;2022-12-29T15:44:48;8.40;99.90
17529;DHT22;8882;53.192;8.184;2022-12-29T15:47:15;8.40;99.90
17529;DHT22;8882;53.192;8.184;2022-12-29T15:49:43;8.30;99.90
17529;DHT22;8882;53.192;8.184;2022-12-29T15:52:09;8.30;99.90
17529;DHT22;8882;53.192;8.184;2022-12-29T15:54:36;8.30;99.90
17529;DHT22;8882;53.192;8.184;2022-12-29T15:57:02;8.40;99.90
17529;DHT22;8882;53.192;8.184;2022-12-29T15:59:30;8.40;99.90
17529;DHT22;8882;53.192;8.184;2022-12-29T16:01:58;8.40;99.90
17529;DHT22;8882;53.192;8.184;2022-12-29T16:04:31;8.40;99.90
17529;DHT22;8882;53.192;8.184;2022-12-29T16:07:00;8.40;99.90
17529;DHT22;8882;53.192;8.184;2022-12-29T16:09:44;8.40;99.90
17529;DHT22;8882;53.192;8.184;2022-12-29T16:12:21;8.40;99.90
17529;DHT22;8882;53.192;8.184;2022-12-29T16:14:54;8.40;99.90
17529;DHT22;8882;53.192;8.184;2022-12-29T16:17:23;8.40;99.90
17529;DHT22;8882;53.192;8.184;2022-12-29T16:19:57;8.40;99.90
17529;DHT22;8882;53.192;8.184;2022-12-29T16:22:31;8.40;99.90
17529;DHT22;8882;53.192;8.184;2022-12-29T16:25:22;8.30;99.90
17529;DHT22;8882;53.192;8.184;2022-12-29T16:27:45;8.40;99.90
17529;DHT22;8882;53.192;8.184;2022-12-29T16:30:25;8.40;99.90
17529;DHT22;8882;53.192;8.184;2022-12-29T16:32:54;8.30;99.90
17529;DHT22;8882;53.192;8.184;2022-12-29T16:35:22;8.30;99.90
17529;DHT22;8882;53.192;8.184;2022-12-29T16:40:38;8.20;99.90
17529;DHT22;8882;53.192;8.184;2022-12-29T16:43:04;8.20;99.90
17529;DHT22;8882;53.192;8.184;2022-12-29T16:48:18;8.20;99.90
17529;DHT22;8882;53.192;8.184;2022-12-29T16:50:45;8.20;99.90
17529;DHT22;8882;53.192;8.184;2022-12-29T16:53:19;8.20;99.90
17529;DHT22;8882;53.192;8.184;2022-12-29T16:55:49;8.20;99.90
17529;DHT22;8882;53.192;8.184;2022-12-29T17:00:46;8.20;99.90
17529;DHT22;8882;53.192;8.184;2022-12-29T17:03:12;8.20;99.90
17529;DHT22;8882;53.192;8.184;2022-12-29T17:05:38;8.20;99.90
17529;DHT22;8882;53.192;8.184;2022-12-29T17:08:16;8.20;99.90
17529;DHT22;8882;53.192;8.184;2022-12-29T17:10:52;8.20;99.90
17529;DHT22;8882;53.192;8.184;2022-12-29T17:13:37;8.20;99.90
17529;DHT22;8882;53.192;8.184;2022-12-29T17:16:04;8.30;99.90
17529;DHT22;8882;53.192;8.184;2022-12-29T17:18:32;8.30;99.90
17529;DHT22;8882;53.192;8.184;2022-12-29T17:20:58;8.30;99.90
17529;DHT22;8882;53.192;8.184;2022-12-29T17:23:24;8.30;99.90
17529;DHT22;8882;53.192;8.184;2022-12-29T17:25:49;8.40;99.90
17529;DHT22;8882;53.192;8.184;2022-12-29T17:28:19;8.40;99.90
17529;DHT22;8882;53.192;8.184;2022-12-29T17:30:45;8.40;99.90
17529;DHT22;8882;53.192;8.184;2022-12-29T17:33:14;8.40;99.90
17529;DHT22;8882;53.192;8.184;2022-12-29T17:35:40;8.40;99.90
17529;DHT22;8882;53.192;8.184;2022-12-29T17:38:30;8.40;99.90
17529;DHT22;8882;53.192;8.184;2022-12-29T17:40:56;8.40;99.90
17529;DHT22;8882;53.192;8.184;2022-12-29T17:43:22;8.40;99.90
17529;DHT22;8882;53.192;8.184;2022-12-29T17:45:51;8.50;99.90
17529;DHT22;8882;53.192;8.184;2022-12-29T17:48:18;8.50;99.90
17529;DHT22;8882;53.192;8.184;2022-12-29T17:50:45;8.50;99.90
17529;DHT22;8882;53.192;8.184;2022-12-29T17:53:14;8.50;99.90
17529;DHT22;8882;53.192;8.184;2022-12-29T17:55:40;8.50;99.90
17529;DHT22;8882;53.192;8.184;2022-12-29T17:58:19;8.50;99.90
17529;DHT22;8882;53.192;8.184;2022-12-29T18:00:49;8.50;99.90
17529;DHT22;8882;53.192;8.184;2022-12-29T18:03:21;8.60;99.90
17529;DHT22;8882;53.192;8.184;2022-12-29T18:05:47;8.60;99.90
17529;DHT22;8882;53.192;8.184;2022-12-29T18:08:14;8.60;99.90
17529;DHT22;8882;53.192;8.184;2022-12-29T18:10:40;8.60;99.90
17529;DHT22;8882;53.192;8.184;2022-12-29T18:13:18;8.70;99.90
17529;DHT22;8882;53.192;8.184;2022-12-29T18:15:43;8.70;99.90
17529;DHT22;8882;53.192;8.184;2022-12-29T18:18:14;8.70;99.90
17529;DHT22;8882;53.192;8.184;2022-12-29T18:20:40;8.70;99.90
17529;DHT22;8882;53.192;8.184;2022-12-29T18:23:23;8.50;99.90
17529;DHT22;8882;53.192;8.184;2022-12-29T18:25:59;8.00;99.90
17529;DHT22;8882;53.192;8.184;2022-12-29T18:28:26;7.80;99.90
17529;DHT22;8882;53.192;8.184;2022-12-29T18:30:53;7.60;99.90
17529;DHT22;8882;53.192;8.184;2022-12-29T18:33:21;7.40;99.90
17529;DHT22;8882;53.192;8.184;2022-12-29T18:38:20;7.20;99.90
17529;DHT22;8882;53.192;8.184;2022-12-29T18:40:46;7.10;99.90
17529;DHT22;8882;53.192;8.184;2022-12-29T18:43:13;6.90;99.90
17529;DHT22;8882;53.192;8.184;2022-12-29T18:45:40;6.80;99.90
17529;DHT22;8882;53.192;8.184;2022-12-29T18:48:05;6.70;99.90
17529;DHT22;8882;53.192;8.184;2022-12-29T18:50:31;6.70;99.90
17529;DHT22;8882;53.192;8.184;2022-12-29T18:52:56;6.60;99.90
17529;DHT22;8882;53.192;8.184;2022-12-29T18:55:23;6.70;99.90
17529;DHT22;8882;53.192;8.184;2022-12-29T18:57:50;6.70;99.90
17529;DHT22;8882;53.192;8.184;2022-12-29T19:00:17;6.70;99.90
17529;DHT22;8882;53.192;8.184;2022-12-29T19:02:43;6.80;99.90
17529;DHT22;8882;53.192;8.184;2022-12-29T19:05:30;6.80;99.90
17529;DHT22;8882;53.192;8.184;2022-12-29T19:07:56;6.80;99.90
17529;DHT22;8882;53.192;8.184;2022-12-29T19:10:23;6.80;99.90
17529;DHT22;8882;53.192;8.184;2022-12-29T19:12:50;6.80;99.90
17529;DHT22;8882;53.192;8.184;2022-12-29T19:15:29;6.80;99.90
17529;DHT22;8882;53.192;8.184;2022-12-29T19:17:57;6.80;99.90
17529;DHT22;8882;53.192;8.184;2022-12-29T19:20:34;6.90;99.90
17529;DHT22;8882;53.192;8.184;2022-12-29T19:23:03;6.90;99.90
17529;DHT22;8882;53.192;8.184;2022-12-29T19:25:29;6.90;99.90
17529;DHT22;8882;53.192;8.184;2022-12-29T19:27:55;6.90;99.90
17529;DHT22;8882;53.192;8.184;2022-12-29T19:30:20;6.90;99.90
17529;DHT22;8882;53.192;8.184;2022-12-29T19:32:48;7.00;99.90
17529;DHT22;8882;53.192;8.184;2022-12-29T19:35:14;7.00;99.90
17529;DHT22;8882;53.192;8.184;2022-12-29T19:37:40;7.00;99.90
17529;DHT22;8882;53.192;8.184;2022-12-29T19:40:13;7.00;99.90
17529;DHT22;8882;53.192;8.184;2022-12-29T19:42:39;7.00;99.90
17529;DHT22;8882;53.192;8.184;2022-12-29T19:45:06;7.00;99.90
17529;DHT22;8882;53.192;8.184;2022-12-29T19:47:32;7.00;99.90
17529;DHT22;8882;53.192;8.184;2022-12-29T19:49:59;7.00;99.90
17529;DHT22;8882;53.192;8.184;2022-12-29T19:52:25;6.90;99.90
17529;DHT22;8882;53.192;8.184;2022-12-29T19:54:51;7.00;99.90
17529;DHT22;8882;53.192;8.184;2022-12-29T19:57:18;7.00;99.90
17529;DHT22;8882;53.192;8.184;2022-12-29T19:59:43;7.10;99.90
17529;DHT22;8882;53.192;8.184;2022-12-29T20:04:42;7.10;99.90
17529;DHT22;8882;53.192;8.184;2022-12-29T20:07:08;7.10;99.90
17529;DHT22;8882;53.192;8.184;2022-12-29T20:09:33;7.10;99.90
17529;DHT22;8882;53.192;8.184;2022-12-29T20:11:59;7.10;99.90
17529;DHT22;8882;53.192;8.184;2022-12-29T20:14:24;7.00;99.90
17529;DHT22;8882;53.192;8.184;2022-12-29T20:16:50;7.00;99.90
17529;DHT22;8882;53.192;8.184;2022-12-29T20:19:15;7.00;99.90
17529;DHT22;8882;53.192;8.184;2022-12-29T20:21:41;6.90;99.90
17529;DHT22;8882;53.192;8.184;2022-12-29T20:24:06;6.90;99.90
17529;DHT22;8882;53.192;8.184;2022-12-29T20:26:32;6.90;99.90
17529;DHT22;8882;53.192;8.184;2022-12-29T20:28:58;6.90;99.90
17529;DHT22;8882;53.192;8.184;2022-12-29T20:31:33;6.90;99.90
17529;DHT22;8882;53.192;8.184;2022-12-29T20:33:58;6.90;99.90
17529;DHT22;8882;53.192;8.184;2022-12-29T20:36:27;7.00;99.90
17529;DHT22;8882;53.192;8.184;2022-12-29T20:38:54;7.00;99.90
17529;DHT22;8882;53.192;8.184;2022-12-29T20:41:20;7.00;99.90
17529;DHT22;8882;53.192;8.184;2022-12-29T20:43:47;7.00;99.90
17529;DHT22;8882;53.192;8.184;2022-12-29T20:46:12;7.00;99.90
17529;DHT22;8882;53.192;8.184;2022-12-29T20:48:41;6.90;99.90
17529;DHT22;8882;53.192;8.184;2022-12-29T20:51:07;7.00;99.90
17529;DHT22;8882;53.192;8.184;2022-12-29T20:53:35;7.00;99.90
17529;DHT22;8882;53.192;8.184;2022-12-29T20:56:04;7.00;99.90
17529;DHT22;8882;53.192;8.184;2022-12-29T20:58:30;7.00;99.90
17529;DHT22;8882;53.192;8.184;2022-12-29T21:01:00;7.00;99.90
17529;DHT22;8882;53.192;8.184;2022-12-29T21:03:26;7.00;99.90
17529;DHT22;8882;53.192;8.184;2022-12-29T21:05:52;7.00;99.90
17529;DHT22;8882;53.192;8.184;2022-12-29T21:08:20;7.00;99.90
17529;DHT22;8882;53.192;8.184;2022-12-29T21:10:46;7.00;99.90
17529;DHT22;8882;53.192;8.184;2022-12-29T21:13:12;7.00;99.90
17529;DHT22;8882;53.192;8.184;2022-12-29T21:15:37;7.00;99.90
17529;DHT22;8882;53.192;8.184;2022-12-29T21:18:03;7.00;99.90
17529;DHT22;8882;53.192;8.184;2022-12-29T21:20:29;7.00;99.90
17529;DHT22;8882;53.192;8.184;2022-12-29T21:22:59;7.00;99.90
17529;DHT22;8882;53.192;8.184;2022-12-29T21:25:27;7.00;99.90
17529;DHT22;8882;53.192;8.184;2022-12-29T21:28:09;7.00;99.90
17529;DHT22;8882;53.192;8.184;2022-12-29T21:30:38;7.10;99.90
17529;DHT22;8882;53.192;8.184;2022-12-29T21:33:03;7.10;99.90
17529;DHT22;8882;53.192;8.184;2022-12-29T21:35:29;7.10;99.90
17529;DHT22;8882;53.192;8.184;2022-12-29T21:37:55;7.10;99.90
17529;DHT22;8882;53.192;8.184;2022-12-29T21:40:21;7.10;99.90
17529;DHT22;8882;53.192;8.184;2022-12-29T21:42:47;7.00;99.90
17529;DHT22;8882;53.192;8.184;2022-12-29T21:45:13;7.10;99.90
17529;DHT22;8882;53.192;8.184;2022-12-29T21:47:57;7.00;99.90
17529;DHT22;8882;53.192;8.184;2022-12-29T21:50:44;7.00;99.90
17529;DHT22;8882;53.192;8.184;2022-12-29T21:53:31;7.00;99.90
17529;DHT22;8882;53.192;8.184;2022-12-29T21:56:11;6.90;99.90
17529;DHT22;8882;53.192;8.184;2022-12-29T21:58:38;6.90;99.90
